createdAt,value
2022-12-20T00:01:35.595Z,1.90
2022-12-20T00:04:05.959Z,1.90
2022-12-20T00:06:37.096Z,1.90
2022-12-20T00:09:07.321Z,1.90
2022-12-20T00:11:35.544Z,1.80
2022-12-20T00:14:03.422Z,1.80
2022-12-20T00:16:31.210Z,1.80
2022-12-20T00:19:02.922Z,1.80
2022-12-20T00:21:32.398Z,1.80
2022-12-20T00:24:00.265Z,1.80
2022-12-20T00:26:30.503Z,1.80
2022-12-20T00:28:58.322Z,1.80
2022-12-20T00:31:28.112Z,1.80
2022-12-20T00:33:57.076Z,1.80
2022-12-20T00:36:26.280Z,1.80
2022-12-20T00:38:55.328Z,1.80
2022-12-20T00:41:25.358Z,1.80
2022-12-20T00:43:53.368Z,1.80
2022-12-20T00:46:24.902Z,1.80
2022-12-20T00:48:54.536Z,1.80
2022-12-20T00:51:26.494Z,1.80
2022-12-20T00:53:54.517Z,1.80
2022-12-20T00:56:22.777Z,1.80
2022-12-20T00:58:50.316Z,1.80
2022-12-20T01:01:24.450Z,1.80
2022-12-20T01:03:53.959Z,1.90
2022-12-20T01:06:22.711Z,1.80
2022-12-20T01:08:50.859Z,1.80
2022-12-20T01:11:21.044Z,1.80
2022-12-20T01:13:51.705Z,1.90
2022-12-20T01:16:26.495Z,1.90
2022-12-20T01:18:55.023Z,1.90
2022-12-20T01:21:24.884Z,1.90
2022-12-20T01:23:53.196Z,1.90
2022-12-20T01:26:22.830Z,1.90
2022-12-20T01:28:54.425Z,1.90
2022-12-20T01:31:22.198Z,1.90
2022-12-20T01:33:51.236Z,1.90
2022-12-20T01:36:21.911Z,1.80
2022-12-20T01:38:49.188Z,1.80
2022-12-20T01:41:19.497Z,1.80
2022-12-20T01:43:56.608Z,1.80
2022-12-20T01:46:26.895Z,1.80
2022-12-20T01:49:14.417Z,1.80
2022-12-20T01:52:11.241Z,1.80
2022-12-20T01:54:47.709Z,1.80
2022-12-20T01:57:22.891Z,1.90
2022-12-20T01:59:51.949Z,1.90
2022-12-20T02:02:23.102Z,1.90
2022-12-20T02:04:51.115Z,1.90
2022-12-20T02:07:24.409Z,1.90
2022-12-20T02:09:54.295Z,1.90
2022-12-20T02:12:24.432Z,1.90
2022-12-20T02:15:03.734Z,1.90
2022-12-20T02:17:49.192Z,1.90
2022-12-20T02:20:16.693Z,1.90
2022-12-20T02:22:53.299Z,1.90
2022-12-20T02:25:32.125Z,1.90
2022-12-20T02:28:30.089Z,1.90
2022-12-20T02:31:00.551Z,1.90
2022-12-20T02:33:28.913Z,1.90
2022-12-20T02:35:56.753Z,1.90
2022-12-20T02:38:36.063Z,1.90
2022-12-20T02:41:30.403Z,1.90
2022-12-20T02:44:25.534Z,1.90
2022-12-20T02:46:54.473Z,1.90
2022-12-20T02:49:28.406Z,1.90
2022-12-20T02:51:57.258Z,1.90
2022-12-20T02:54:25.238Z,1.90
2022-12-20T02:57:08.397Z,1.90
2022-12-20T02:59:42.950Z,1.90
2022-12-20T03:02:12.915Z,1.90
2022-12-20T03:04:42.152Z,1.90
2022-12-20T03:07:13.422Z,1.90
2022-12-20T03:09:44.084Z,1.90
2022-12-20T03:12:15.967Z,1.90
2022-12-20T03:14:44.094Z,2.00
2022-12-20T03:17:14.523Z,2.00
2022-12-20T03:19:43.407Z,2.00
2022-12-20T03:22:11.701Z,2.00
2022-12-20T03:24:39.350Z,2.00
2022-12-20T03:27:12.455Z,2.00
2022-12-20T03:29:39.906Z,2.00
2022-12-20T03:32:07.700Z,2.10
2022-12-20T03:34:35.004Z,2.10
2022-12-20T03:37:03.125Z,2.10
2022-12-20T03:39:30.967Z,2.10
2022-12-20T03:41:58.463Z,2.10
2022-12-20T03:44:26.639Z,2.10
2022-12-20T03:46:54.781Z,2.10
2022-12-20T03:49:22.117Z,2.10
2022-12-20T03:51:52.239Z,2.20
2022-12-20T03:54:19.723Z,2.10
2022-12-20T03:57:10.042Z,2.10
2022-12-20T03:59:38.958Z,2.10
2022-12-20T04:02:09.209Z,2.20
2022-12-20T04:04:36.970Z,2.10
2022-12-20T04:07:04.754Z,2.10
2022-12-20T04:09:32.793Z,2.10
2022-12-20T04:12:06.522Z,2.10
2022-12-20T04:14:37.722Z,2.10
2022-12-20T04:17:05.804Z,2.10
2022-12-20T04:19:34.675Z,2.20
2022-12-20T04:22:06.162Z,2.10
2022-12-20T04:24:46.838Z,2.20
2022-12-20T04:27:25.438Z,2.20
2022-12-20T04:29:55.359Z,2.20
2022-12-20T04:32:23.854Z,2.30
2022-12-20T04:34:51.628Z,2.30
2022-12-20T04:37:19.850Z,2.20
2022-12-20T04:39:52.289Z,2.30
2022-12-20T04:42:26.786Z,2.20
2022-12-20T04:44:55.549Z,2.20
2022-12-20T04:47:26.811Z,2.20
2022-12-20T04:49:55.614Z,2.20
2022-12-20T04:52:47.361Z,2.30
2022-12-20T04:55:15.556Z,2.20
2022-12-20T04:57:43.041Z,2.20
2022-12-20T05:00:11.519Z,2.20
2022-12-20T05:02:43.804Z,2.20
2022-12-20T05:05:15.515Z,2.20
2022-12-20T05:07:49.062Z,2.20
2022-12-20T05:10:17.388Z,2.20
2022-12-20T05:12:45.299Z,2.20
2022-12-20T05:15:20.981Z,2.30
2022-12-20T05:17:48.526Z,2.30
2022-12-20T05:20:16.211Z,2.30
2022-12-20T05:23:04.464Z,2.30
2022-12-20T05:25:50.974Z,2.30
2022-12-20T05:28:18.580Z,2.30
2022-12-20T05:30:46.065Z,2.30
2022-12-20T05:33:14.318Z,2.30
2022-12-20T05:35:43.155Z,2.30
2022-12-20T05:38:14.018Z,2.30
2022-12-20T05:40:41.696Z,2.20
2022-12-20T05:43:09.910Z,2.20
2022-12-20T05:45:50.003Z,2.30
2022-12-20T05:48:22.474Z,2.30
2022-12-20T05:50:50.008Z,2.20
2022-12-20T05:53:29.137Z,2.20
2022-12-20T05:56:01.302Z,2.20
2022-12-20T05:58:40.300Z,2.20
2022-12-20T06:01:10.544Z,2.20
2022-12-20T06:03:40.972Z,2.20
2022-12-20T06:06:15.541Z,2.30
2022-12-20T06:08:46.494Z,2.30
2022-12-20T06:11:29.360Z,2.30
2022-12-20T06:14:03.333Z,2.30
2022-12-20T06:16:31.361Z,2.30
2022-12-20T06:19:01.013Z,2.30
2022-12-20T06:21:29.171Z,2.30
2022-12-20T06:23:57.980Z,2.30
2022-12-20T06:26:25.361Z,2.30
2022-12-20T06:28:54.653Z,2.20
2022-12-20T06:31:26.147Z,2.20
2022-12-20T06:33:55.648Z,2.20
2022-12-20T06:36:26.224Z,2.20
2022-12-20T06:38:54.403Z,2.20
2022-12-20T06:41:21.956Z,2.30
2022-12-20T06:43:49.631Z,2.30
2022-12-20T06:46:17.284Z,2.30
2022-12-20T06:48:45.871Z,2.20
2022-12-20T06:51:14.800Z,2.20
2022-12-20T06:53:42.841Z,2.20
2022-12-20T06:56:10.600Z,2.20
2022-12-20T06:58:38.000Z,2.20
2022-12-20T07:01:05.964Z,2.20
2022-12-20T07:03:34.534Z,2.20
2022-12-20T07:06:02.021Z,2.20
2022-12-20T07:08:29.896Z,2.20
2022-12-20T07:11:02.851Z,2.20
2022-12-20T07:13:30.826Z,2.20
2022-12-20T07:16:00.056Z,2.20
2022-12-20T07:18:27.774Z,2.20
2022-12-20T07:20:55.676Z,2.20
2022-12-20T07:23:23.136Z,2.20
2022-12-20T07:25:59.302Z,2.30
2022-12-20T07:28:27.767Z,2.30
2022-12-20T07:30:55.248Z,2.30
2022-12-20T07:33:22.705Z,2.40
2022-12-20T07:35:54.375Z,2.40
2022-12-20T07:38:22.430Z,2.40
2022-12-20T07:40:50.091Z,2.50
2022-12-20T07:43:17.490Z,2.50
2022-12-20T07:45:45.176Z,2.50
2022-12-20T07:48:19.712Z,2.50
2022-12-20T07:50:48.963Z,2.50
2022-12-20T07:53:16.265Z,2.50
2022-12-20T07:55:44.108Z,2.50
2022-12-20T07:58:25.678Z,2.50
2022-12-20T08:00:53.303Z,2.40
2022-12-20T08:03:27.047Z,2.50
2022-12-20T08:05:59.628Z,2.40
2022-12-20T08:08:27.014Z,2.50
2022-12-20T08:10:54.329Z,2.50
2022-12-20T08:13:21.764Z,2.50
2022-12-20T08:15:49.326Z,2.50
2022-12-20T08:18:16.917Z,2.50
2022-12-20T08:20:44.884Z,2.60
2022-12-20T08:23:12.312Z,2.60
2022-12-20T08:25:41.987Z,2.60
2022-12-20T08:28:10.078Z,2.70
2022-12-20T08:30:38.162Z,2.70
2022-12-20T08:33:06.078Z,2.70
2022-12-20T08:35:33.576Z,2.60
2022-12-20T08:38:01.114Z,2.70
2022-12-20T08:40:28.857Z,2.70
2022-12-20T08:42:56.551Z,2.80
2022-12-20T08:45:24.793Z,2.80
2022-12-20T08:47:53.650Z,2.80
2022-12-20T08:50:21.112Z,2.80
2022-12-20T08:52:48.529Z,2.80
2022-12-20T08:55:15.838Z,2.80
2022-12-20T08:57:43.551Z,2.80
2022-12-20T09:00:11.694Z,2.80
2022-12-20T09:02:41.563Z,2.90
2022-12-20T09:05:09.729Z,2.90
2022-12-20T09:07:37.377Z,2.90
2022-12-20T09:10:05.181Z,2.90
2022-12-20T09:12:32.863Z,2.90
2022-12-20T09:15:00.287Z,2.90
2022-12-20T09:17:27.963Z,2.90
2022-12-20T09:19:55.558Z,2.80
2022-12-20T09:22:23.008Z,2.80
2022-12-20T09:24:50.406Z,2.90
2022-12-20T09:27:17.883Z,2.90
2022-12-20T09:29:45.570Z,2.90
2022-12-20T09:32:13.291Z,2.90
2022-12-20T09:34:40.603Z,3.00
2022-12-20T09:37:08.447Z,3.00
2022-12-20T09:39:35.952Z,3.00
2022-12-20T09:42:08.150Z,3.00
2022-12-20T09:44:39.722Z,3.00
2022-12-20T09:47:26.681Z,3.00
2022-12-20T09:49:57.678Z,3.00
2022-12-20T09:52:42.992Z,3.00
2022-12-20T09:55:28.832Z,3.10
2022-12-20T09:58:10.623Z,3.10
2022-12-20T10:00:53.253Z,3.10
2022-12-20T10:03:35.840Z,3.10
2022-12-20T10:06:27.627Z,3.10
2022-12-20T10:09:04.048Z,3.10
2022-12-20T10:11:38.644Z,3.00
2022-12-20T10:14:26.962Z,3.00
2022-12-20T10:17:02.295Z,3.00
2022-12-20T10:19:34.854Z,3.00
2022-12-20T10:22:14.549Z,3.00
2022-12-20T10:24:47.976Z,3.00
2022-12-20T10:27:18.736Z,3.00
2022-12-20T10:29:48.105Z,3.00
2022-12-20T10:32:18.761Z,3.10
2022-12-20T10:34:51.735Z,3.10
2022-12-20T10:37:20.124Z,3.00
2022-12-20T10:39:50.954Z,3.00
2022-12-20T10:42:29.923Z,3.00
2022-12-20T10:44:57.836Z,3.00
2022-12-20T10:47:37.256Z,3.00
2022-12-20T10:50:17.312Z,3.00
2022-12-20T10:52:45.948Z,3.10
2022-12-20T10:55:35.047Z,3.10
2022-12-20T10:58:13.864Z,3.10
2022-12-20T11:00:41.593Z,3.10
2022-12-20T11:03:49.972Z,3.10
2022-12-20T11:06:19.453Z,3.20
2022-12-20T11:08:52.710Z,3.20
2022-12-20T11:11:25.218Z,3.20
2022-12-20T11:13:52.995Z,3.20
2022-12-20T11:16:25.714Z,3.20
2022-12-20T11:19:29.517Z,3.30
2022-12-20T11:22:09.060Z,3.20
2022-12-20T11:24:39.392Z,3.20
2022-12-20T11:27:16.121Z,3.20
2022-12-20T11:29:56.237Z,3.20
2022-12-20T11:32:48.925Z,3.20
2022-12-20T11:36:04.823Z,3.20
2022-12-20T11:38:40.924Z,3.20
2022-12-20T11:41:11.845Z,3.20
2022-12-20T11:44:23.882Z,3.10
2022-12-20T11:47:09.528Z,3.20
2022-12-20T11:49:52.229Z,3.20
2022-12-20T11:52:36.565Z,3.20
2022-12-20T11:55:07.778Z,3.20
2022-12-20T11:58:09.445Z,3.10
2022-12-20T12:00:36.286Z,3.10
2022-12-20T12:03:20.052Z,3.10
2022-12-20T12:05:53.461Z,3.10
2022-12-20T12:08:32.225Z,3.10
2022-12-20T12:12:05.341Z,3.00
2022-12-20T12:14:29.228Z,3.00
2022-12-20T12:17:02.014Z,3.00
2022-12-20T12:19:30.871Z,3.00
2022-12-20T12:22:07.235Z,3.00
2022-12-20T12:24:43.562Z,3.00
2022-12-20T12:27:24.155Z,3.00
2022-12-20T12:29:56.531Z,3.00
2022-12-20T12:32:34.545Z,3.00
2022-12-20T12:35:20.845Z,3.10
2022-12-20T12:37:55.619Z,3.00
2022-12-20T12:40:52.814Z,3.00
2022-12-20T12:43:52.950Z,3.00
2022-12-20T12:46:26.239Z,3.00
2022-12-20T12:49:01.433Z,3.00
2022-12-20T12:51:34.942Z,2.90
2022-12-20T12:54:10.253Z,3.00
2022-12-20T12:56:46.236Z,2.90
2022-12-20T12:59:41.363Z,3.00
2022-12-20T13:02:15.502Z,3.00
2022-12-20T13:05:11.058Z,2.90
2022-12-20T13:07:45.519Z,2.90
2022-12-20T13:10:19.037Z,2.90
2022-12-20T13:12:52.621Z,2.90
2022-12-20T13:15:20.044Z,2.90
2022-12-20T13:17:55.414Z,3.00
2022-12-20T13:20:28.691Z,3.00
2022-12-20T13:23:17.317Z,3.00
2022-12-20T13:25:46.552Z,3.10
2022-12-20T13:28:17.150Z,3.10
2022-12-20T13:31:10.004Z,3.10
2022-12-20T13:33:45.922Z,3.10
2022-12-20T13:36:13.466Z,3.10
2022-12-20T13:38:51.748Z,3.10
2022-12-20T13:41:41.630Z,3.10
2022-12-20T13:44:15.069Z,3.20
2022-12-20T13:46:49.560Z,3.20
2022-12-20T13:49:36.359Z,3.20
2022-12-20T13:52:24.568Z,3.20
2022-12-20T13:54:55.913Z,3.20
2022-12-20T13:57:43.929Z,3.10
2022-12-20T14:00:22.788Z,3.00
2022-12-20T14:02:50.612Z,3.00
2022-12-20T14:05:26.848Z,3.00
2022-12-20T14:08:08.039Z,3.00
2022-12-20T14:10:36.710Z,3.00
2022-12-20T14:13:17.845Z,3.00
2022-12-20T14:15:45.938Z,3.00
2022-12-20T14:18:22.051Z,2.90
2022-12-20T14:20:58.127Z,2.90
2022-12-20T14:23:41.661Z,2.90
2022-12-20T14:26:22.436Z,2.90
2022-12-20T14:28:58.502Z,2.90
2022-12-20T14:31:32.234Z,2.80
2022-12-20T14:34:14.457Z,2.80
2022-12-20T14:36:44.605Z,2.80
2022-12-20T14:39:31.708Z,2.70
2022-12-20T14:42:21.137Z,2.70
2022-12-20T14:44:48.700Z,2.70
2022-12-20T14:47:22.603Z,2.80
2022-12-20T14:49:55.990Z,2.70
2022-12-20T14:52:33.673Z,2.70
2022-12-20T14:55:08.195Z,2.60
2022-12-20T14:57:36.954Z,2.60
2022-12-20T15:00:15.085Z,2.60
2022-12-20T15:02:46.343Z,2.70
2022-12-20T15:05:39.009Z,2.70
2022-12-20T15:08:20.176Z,2.70
2022-12-20T15:10:52.587Z,2.70
2022-12-20T15:13:23.379Z,2.60
2022-12-20T15:15:50.973Z,2.60
2022-12-20T15:18:20.199Z,2.60
2022-12-20T15:21:02.372Z,2.60
2022-12-20T15:23:30.191Z,2.60
2022-12-20T15:25:57.701Z,2.60
2022-12-20T15:28:27.256Z,2.60
2022-12-20T15:30:55.663Z,2.60
2022-12-20T15:33:34.229Z,2.70
2022-12-20T15:36:02.257Z,2.70
2022-12-20T15:38:54.673Z,2.70
2022-12-20T15:41:22.217Z,2.70
2022-12-20T15:43:53.983Z,2.70
2022-12-20T15:46:22.268Z,2.70
2022-12-20T15:48:50.147Z,2.70
2022-12-20T15:51:38.371Z,2.70
2022-12-20T15:54:14.519Z,2.70
2022-12-20T15:56:41.872Z,2.70
2022-12-20T15:59:40.358Z,2.70
2022-12-20T16:01:57.053Z,2.70
2022-12-20T16:04:24.773Z,2.80
2022-12-20T16:06:53.825Z,2.90
2022-12-20T16:09:22.593Z,2.90
2022-12-20T16:11:50.265Z,2.80
2022-12-20T16:14:21.664Z,2.80
2022-12-20T16:16:50.453Z,2.80
2022-12-20T16:19:18.008Z,2.80
2022-12-20T16:21:50.090Z,2.70
2022-12-20T16:24:20.412Z,2.70
2022-12-20T16:26:51.718Z,2.70
2022-12-20T16:29:19.129Z,2.70
2022-12-20T16:31:46.559Z,2.70
2022-12-20T16:34:16.711Z,2.80
2022-12-20T16:36:44.941Z,2.80
2022-12-20T16:39:12.422Z,2.80
2022-12-20T16:41:41.502Z,2.80
2022-12-20T16:44:16.630Z,2.70
2022-12-20T16:46:45.584Z,2.70
2022-12-20T16:49:19.766Z,2.70
2022-12-20T16:51:49.317Z,2.70
2022-12-20T16:54:20.869Z,2.70
2022-12-20T16:56:56.945Z,2.60
2022-12-20T16:59:25.435Z,2.60
2022-12-20T17:01:55.980Z,2.60
2022-12-20T17:04:24.325Z,2.60
2022-12-20T17:06:52.042Z,2.70
2022-12-20T17:12:19.474Z,2.70
2022-12-20T17:14:47.549Z,2.80
2022-12-20T17:17:15.355Z,2.80
2022-12-20T17:19:42.708Z,2.80
2022-12-20T17:22:25.119Z,2.90
2022-12-20T17:24:52.469Z,3.00
2022-12-20T17:27:20.077Z,3.00
2022-12-20T17:29:47.477Z,3.00
2022-12-20T17:32:25.814Z,3.00
2022-12-20T17:34:53.662Z,3.00
2022-12-20T17:37:21.744Z,3.00
2022-12-20T17:39:49.547Z,2.90
2022-12-20T17:42:17.253Z,3.00
2022-12-20T17:44:46.222Z,2.90
2022-12-20T17:47:14.069Z,3.00
2022-12-20T17:49:41.385Z,3.00
2022-12-20T17:52:15.590Z,3.00
2022-12-20T17:54:43.060Z,3.10
2022-12-20T17:57:16.692Z,3.10
2022-12-20T17:59:45.353Z,3.10
2022-12-20T18:02:23.902Z,3.10
2022-12-20T18:04:52.311Z,3.10
2022-12-20T18:07:20.051Z,3.10
2022-12-20T18:09:48.482Z,3.10
2022-12-20T18:12:16.789Z,3.20
2022-12-20T18:14:45.841Z,3.20
2022-12-20T18:17:13.434Z,3.20
2022-12-20T18:19:41.337Z,3.20
2022-12-20T18:22:09.411Z,3.10
2022-12-20T18:24:36.691Z,3.10
2022-12-20T18:27:04.093Z,3.10
2022-12-20T18:29:31.612Z,3.00
2022-12-20T18:31:59.301Z,3.00
2022-12-20T18:34:26.868Z,3.00
2022-12-20T18:36:54.269Z,3.00
2022-12-20T18:39:21.613Z,3.00
2022-12-20T18:41:51.265Z,3.00
2022-12-20T18:44:18.583Z,2.90
2022-12-20T18:46:45.960Z,2.90
2022-12-20T18:49:13.253Z,2.90
2022-12-20T18:51:40.694Z,2.90
2022-12-20T18:54:08.775Z,2.90
2022-12-20T18:56:39.128Z,2.90
2022-12-20T18:59:11.986Z,2.90
2022-12-20T19:01:41.464Z,2.90
2022-12-20T19:04:09.311Z,2.90
2022-12-20T19:06:38.068Z,2.90
2022-12-20T19:09:09.005Z,2.90
2022-12-20T19:11:36.803Z,2.90
2022-12-20T19:14:04.462Z,2.80
2022-12-20T19:16:32.778Z,2.90
2022-12-20T19:19:03.807Z,2.90
2022-12-20T19:21:33.689Z,2.90
2022-12-20T19:24:05.087Z,2.90
2022-12-20T19:26:33.668Z,3.00
2022-12-20T19:29:01.162Z,3.00
2022-12-20T19:31:31.074Z,3.00
2022-12-20T19:34:04.045Z,3.00
2022-12-20T19:36:43.682Z,3.00
2022-12-20T19:39:17.196Z,3.00
2022-12-20T19:41:55.042Z,2.90
2022-12-20T19:44:32.016Z,2.90
2022-12-20T19:47:05.838Z,3.00
2022-12-20T19:49:35.648Z,3.00
2022-12-20T19:52:03.807Z,2.90
2022-12-20T19:54:31.536Z,2.90
2022-12-20T19:56:59.209Z,2.90
2022-12-20T19:59:26.609Z,2.90
2022-12-20T20:01:54.302Z,2.90
2022-12-20T20:04:21.882Z,2.90
2022-12-20T20:06:49.672Z,2.90
2022-12-20T20:09:17.072Z,2.90
2022-12-20T20:11:44.711Z,2.90
2022-12-20T20:14:12.239Z,2.90
2022-12-20T20:16:39.729Z,2.90
2022-12-20T20:19:07.114Z,2.90
2022-12-20T20:21:36.506Z,2.90
2022-12-20T20:24:04.885Z,2.90
2022-12-20T20:26:32.338Z,2.90
2022-12-20T20:29:01.441Z,3.00
2022-12-20T20:31:29.221Z,3.00
2022-12-20T20:33:58.289Z,3.00
2022-12-20T20:36:26.094Z,3.00
2022-12-20T20:38:53.622Z,3.00
2022-12-20T20:41:21.127Z,3.00
2022-12-20T20:43:48.773Z,3.00
2022-12-20T20:46:17.896Z,3.00
2022-12-20T20:48:45.575Z,2.90
2022-12-20T20:51:13.106Z,2.90
2022-12-20T20:53:40.871Z,2.90
2022-12-20T20:56:09.702Z,2.90
2022-12-20T20:58:37.647Z,2.80
2022-12-20T21:01:08.717Z,2.90
2022-12-20T21:03:37.283Z,2.90
2022-12-20T21:06:37.172Z,2.90
2022-12-20T21:08:54.385Z,2.90
2022-12-20T21:11:22.341Z,3.00
2022-12-20T21:13:49.841Z,3.00
2022-12-20T21:16:22.215Z,3.00
2022-12-20T21:18:55.106Z,3.10
2022-12-20T21:21:24.814Z,3.00
2022-12-20T21:23:55.955Z,3.10
2022-12-20T21:26:25.397Z,3.10
2022-12-20T21:28:57.564Z,3.10
2022-12-20T21:31:25.490Z,3.10
2022-12-20T21:33:52.895Z,3.10
2022-12-20T21:36:20.665Z,3.10
2022-12-20T21:38:53.773Z,3.10
2022-12-20T21:41:23.607Z,3.20
2022-12-20T21:43:54.355Z,3.20
2022-12-20T21:46:22.128Z,3.20
2022-12-20T21:48:49.631Z,3.20
2022-12-20T21:51:22.967Z,3.20
2022-12-20T21:53:52.608Z,3.20
2022-12-20T21:56:21.632Z,3.20
2022-12-20T21:58:49.938Z,3.20
2022-12-20T22:01:21.030Z,3.20
2022-12-20T22:03:57.192Z,3.20
2022-12-20T22:06:25.881Z,3.10
2022-12-20T22:08:53.608Z,3.20
2022-12-20T22:11:21.044Z,3.20
2022-12-20T22:13:48.731Z,3.10
2022-12-20T22:16:19.426Z,3.20
2022-12-20T22:18:51.040Z,3.20
2022-12-20T22:21:20.552Z,3.20
2022-12-20T22:23:48.082Z,3.20
2022-12-20T22:26:20.604Z,3.20
2022-12-20T22:28:51.202Z,3.20
2022-12-20T22:31:19.371Z,3.20
2022-12-20T22:33:47.503Z,3.20
2022-12-20T22:36:16.400Z,3.20
2022-12-20T22:38:45.053Z,3.20
2022-12-20T22:41:18.524Z,3.20
2022-12-20T22:43:47.372Z,3.20
2022-12-20T22:46:16.644Z,3.20
2022-12-20T22:48:45.254Z,3.20
2022-12-20T22:51:18.840Z,3.30
2022-12-20T22:53:47.834Z,3.20
2022-12-20T22:56:17.649Z,3.30
2022-12-20T22:58:45.333Z,3.30
2022-12-20T23:01:15.637Z,3.30
2022-12-20T23:03:43.762Z,3.30
2022-12-20T23:06:14.420Z,3.30
2022-12-20T23:08:42.370Z,3.30
2022-12-20T23:11:43.501Z,3.30
2022-12-20T23:14:38.012Z,3.20
2022-12-20T23:17:07.487Z,3.20
2022-12-20T23:19:53.996Z,3.20
2022-12-20T23:22:38.459Z,3.20
2022-12-20T23:25:09.391Z,3.20
2022-12-20T23:27:36.951Z,3.20
2022-12-20T23:30:06.808Z,3.20
2022-12-20T23:32:34.632Z,3.20
2022-12-20T23:35:05.637Z,3.20
2022-12-20T23:37:38.415Z,3.20
2022-12-20T23:40:07.441Z,3.20
2022-12-20T23:42:34.931Z,3.20
2022-12-20T23:45:02.551Z,3.20
2022-12-20T23:47:31.449Z,3.20
2022-12-20T23:49:58.936Z,3.20
2022-12-20T23:52:26.883Z,3.20
2022-12-20T23:54:54.393Z,3.30
2022-12-20T23:57:22.767Z,3.30
2022-12-20T23:59:50.039Z,3.30
